sensor_id;sensor_type;location;lat;lon;timestamp;P1;durP1;ratioP1;P2;durP2;ratioP2
52512;SDS011;38422;53.172;6.974;2023-06-14T00:00:47;4.60;;;0.93;;
52512;SDS011;38422;53.172;6.974;2023-06-14T00:03:14;1.75;;;0.80;;
52512;SDS011;38422;53.172;6.974;2023-06-14T00:05:42;2.25;;;0.98;;
52512;SDS011;38422;53.172;6.974;2023-06-14T00:08:09;3.28;;;1.00;;
52512;SDS011;38422;53.172;6.974;2023-06-14T00:13:02;3.45;;;0.90;;
52512;SDS011;38422;53.172;6.974;2023-06-14T00:15:29;4.28;;;1.08;;
52512;SDS011;38422;53.172;6.974;2023-06-14T00:20:25;2.10;;;1.00;;
52512;SDS011;38422;53.172;6.974;2023-06-14T00:22:51;1.85;;;0.90;;
52512;SDS011;38422;53.172;6.974;2023-06-14T00:25:17;4.32;;;1.00;;
52512;SDS011;38422;53.172;6.974;2023-06-14T00:27:42;2.90;;;0.85;;
52512;SDS011;38422;53.172;6.974;2023-06-14T00:30:08;2.60;;;0.90;;
52512;SDS011;38422;53.172;6.974;2023-06-14T00:32:34;2.10;;;1.00;;
52512;SDS011;38422;53.172;6.974;2023-06-14T00:35:00;1.85;;;0.70;;
52512;SDS011;38422;53.172;6.974;2023-06-14T00:37:26;2.83;;;0.90;;
52512;SDS011;38422;53.172;6.974;2023-06-14T00:39:51;2.45;;;1.00;;
52512;SDS011;38422;53.172;6.974;2023-06-14T00:42:24;1.75;;;0.85;;
52512;SDS011;38422;53.172;6.974;2023-06-14T00:44:50;2.00;;;1.00;;
52512;SDS011;38422;53.172;6.974;2023-06-14T00:47:16;1.80;;;0.77;;
52512;SDS011;38422;53.172;6.974;2023-06-14T00:49:42;2.88;;;0.90;;
52512;SDS011;38422;53.172;6.974;2023-06-14T00:52:10;2.70;;;1.00;;
52512;SDS011;38422;53.172;6.974;2023-06-14T00:54:38;3.42;;;0.90;;
52512;SDS011;38422;53.172;6.974;2023-06-14T00:57:04;3.25;;;0.90;;
52512;SDS011;38422;53.172;6.974;2023-06-14T00:59:31;3.90;;;1.07;;
52512;SDS011;38422;53.172;6.974;2023-06-14T01:01:57;2.35;;;0.82;;
52512;SDS011;38422;53.172;6.974;2023-06-14T01:04:22;2.45;;;1.33;;
52512;SDS011;38422;53.172;6.974;2023-06-14T01:12:44;1.25;;;0.80;;
52512;SDS011;38422;53.172;6.974;2023-06-14T01:15:36;3.72;;;1.10;;
52512;SDS011;38422;53.172;6.974;2023-06-14T01:18:03;5.47;;;1.30;;
52512;SDS011;38422;53.172;6.974;2023-06-14T01:20:30;2.55;;;0.80;;
52512;SDS011;38422;53.172;6.974;2023-06-14T01:22:57;2.85;;;0.93;;
52512;SDS011;38422;53.172;6.974;2023-06-14T01:25:24;3.38;;;1.00;;
52512;SDS011;38422;53.172;6.974;2023-06-14T01:27:51;2.92;;;0.90;;
52512;SDS011;38422;53.172;6.974;2023-06-14T01:30:20;4.03;;;1.08;;
52512;SDS011;38422;53.172;6.974;2023-06-14T01:32:47;1.58;;;0.93;;
52512;SDS011;38422;53.172;6.974;2023-06-14T01:35:15;3.78;;;1.00;;
52512;SDS011;38422;53.172;6.974;2023-06-14T01:37:41;2.42;;;1.10;;
52512;SDS011;38422;53.172;6.974;2023-06-14T01:40:08;1.80;;;0.93;;
52512;SDS011;38422;53.172;6.974;2023-06-14T01:42:36;2.00;;;1.00;;
52512;SDS011;38422;53.172;6.974;2023-06-14T01:45:06;3.03;;;1.20;;
52512;SDS011;38422;53.172;6.974;2023-06-14T01:47:33;2.47;;;1.10;;
52512;SDS011;38422;53.172;6.974;2023-06-14T01:50:01;3.55;;;0.82;;
52512;SDS011;38422;53.172;6.974;2023-06-14T01:54:53;1.55;;;0.88;;
52512;SDS011;38422;53.172;6.974;2023-06-14T01:57:19;3.05;;;1.00;;
52512;SDS011;38422;53.172;6.974;2023-06-14T01:59:45;3.95;;;0.98;;
52512;SDS011;38422;53.172;6.974;2023-06-14T02:02:13;1.70;;;1.00;;
52512;SDS011;38422;53.172;6.974;2023-06-14T02:04:39;2.97;;;1.10;;
52512;SDS011;38422;53.172;6.974;2023-06-14T02:07:05;2.88;;;1.23;;
52512;SDS011;38422;53.172;6.974;2023-06-14T02:09:30;4.88;;;1.23;;
52512;SDS011;38422;53.172;6.974;2023-06-14T02:11:56;3.47;;;1.00;;
52512;SDS011;38422;53.172;6.974;2023-06-14T02:14:22;1.45;;;1.00;;
52512;SDS011;38422;53.172;6.974;2023-06-14T02:16:48;3.10;;;1.17;;
52512;SDS011;38422;53.172;6.974;2023-06-14T02:19:17;2.78;;;1.20;;
52512;SDS011;38422;53.172;6.974;2023-06-14T02:21:44;3.70;;;1.20;;
52512;SDS011;38422;53.172;6.974;2023-06-14T02:24:10;1.65;;;1.10;;
52512;SDS011;38422;53.172;6.974;2023-06-14T02:26:36;1.63;;;1.10;;
52512;SDS011;38422;53.172;6.974;2023-06-14T02:29:06;1.85;;;1.20;;
52512;SDS011;38422;53.172;6.974;2023-06-14T02:31:35;2.30;;;1.20;;
52512;SDS011;38422;53.172;6.974;2023-06-14T02:34:01;3.45;;;1.10;;
52512;SDS011;38422;53.172;6.974;2023-06-14T02:36:27;3.13;;;1.30;;
52512;SDS011;38422;53.172;6.974;2023-06-14T02:38:54;2.22;;;1.20;;
52512;SDS011;38422;53.172;6.974;2023-06-14T02:41:22;3.88;;;1.30;;
52512;SDS011;38422;53.172;6.974;2023-06-14T02:43:49;1.88;;;1.00;;
52512;SDS011;38422;53.172;6.974;2023-06-14T02:46:14;3.55;;;1.10;;
52512;SDS011;38422;53.172;6.974;2023-06-14T02:48:40;3.80;;;1.40;;
52512;SDS011;38422;53.172;6.974;2023-06-14T02:51:06;3.60;;;1.33;;
52512;SDS011;38422;53.172;6.974;2023-06-14T02:53:33;4.32;;;1.15;;
52512;SDS011;38422;53.172;6.974;2023-06-14T02:55:59;3.20;;;1.40;;
52512;SDS011;38422;53.172;6.974;2023-06-14T02:58:26;3.15;;;1.38;;
52512;SDS011;38422;53.172;6.974;2023-06-14T03:00:52;2.85;;;1.30;;
52512;SDS011;38422;53.172;6.974;2023-06-14T03:03:20;2.85;;;1.30;;
52512;SDS011;38422;53.172;6.974;2023-06-14T03:05:47;3.67;;;1.45;;
52512;SDS011;38422;53.172;6.974;2023-06-14T03:08:17;3.45;;;1.45;;
52512;SDS011;38422;53.172;6.974;2023-06-14T03:10:45;3.75;;;1.48;;
52512;SDS011;38422;53.172;6.974;2023-06-14T03:13:12;3.88;;;1.40;;
52512;SDS011;38422;53.172;6.974;2023-06-14T03:15:38;5.85;;;1.40;;
52512;SDS011;38422;53.172;6.974;2023-06-14T03:18:07;3.67;;;1.40;;
52512;SDS011;38422;53.172;6.974;2023-06-14T03:20:34;3.90;;;1.45;;
52512;SDS011;38422;53.172;6.974;2023-06-14T03:23:01;2.58;;;1.38;;
52512;SDS011;38422;53.172;6.974;2023-06-14T03:25:27;2.38;;;1.40;;
52512;SDS011;38422;53.172;6.974;2023-06-14T03:27:58;3.63;;;1.40;;
52512;SDS011;38422;53.172;6.974;2023-06-14T03:30:23;5.57;;;1.58;;
52512;SDS011;38422;53.172;6.974;2023-06-14T03:32:49;3.45;;;1.38;;
52512;SDS011;38422;53.172;6.974;2023-06-14T03:35:18;3.90;;;1.50;;
52512;SDS011;38422;53.172;6.974;2023-06-14T03:37:45;4.35;;;1.40;;
52512;SDS011;38422;53.172;6.974;2023-06-14T03:40:11;3.10;;;1.55;;
52512;SDS011;38422;53.172;6.974;2023-06-14T03:42:38;2.60;;;1.40;;
52512;SDS011;38422;53.172;6.974;2023-06-14T03:45:05;4.22;;;1.75;;
52512;SDS011;38422;53.172;6.974;2023-06-14T03:47:31;2.75;;;1.48;;
52512;SDS011;38422;53.172;6.974;2023-06-14T03:49:57;5.75;;;1.50;;
52512;SDS011;38422;53.172;6.974;2023-06-14T03:52:23;3.40;;;1.60;;
52512;SDS011;38422;53.172;6.974;2023-06-14T03:54:48;3.15;;;2.00;;
52512;SDS011;38422;53.172;6.974;2023-06-14T03:57:14;3.17;;;1.70;;
52512;SDS011;38422;53.172;6.974;2023-06-14T03:59:40;2.33;;;1.40;;
52512;SDS011;38422;53.172;6.974;2023-06-14T04:02:06;3.70;;;1.70;;
52512;SDS011;38422;53.172;6.974;2023-06-14T04:04:35;4.07;;;1.65;;
52512;SDS011;38422;53.172;6.974;2023-06-14T04:07:01;3.10;;;1.50;;
52512;SDS011;38422;53.172;6.974;2023-06-14T04:09:31;3.97;;;1.65;;
52512;SDS011;38422;53.172;6.974;2023-06-14T04:11:57;4.15;;;1.45;;
52512;SDS011;38422;53.172;6.974;2023-06-14T04:14:23;4.15;;;1.55;;
52512;SDS011;38422;53.172;6.974;2023-06-14T04:16:49;3.53;;;1.58;;
52512;SDS011;38422;53.172;6.974;2023-06-14T04:19:15;4.03;;;2.10;;
52512;SDS011;38422;53.172;6.974;2023-06-14T04:21:41;3.70;;;1.70;;
52512;SDS011;38422;53.172;6.974;2023-06-14T04:24:09;3.92;;;1.58;;
52512;SDS011;38422;53.172;6.974;2023-06-14T04:26:42;2.95;;;1.70;;
52512;SDS011;38422;53.172;6.974;2023-06-14T04:29:16;4.63;;;1.80;;
52512;SDS011;38422;53.172;6.974;2023-06-14T04:31:45;4.18;;;1.80;;
52512;SDS011;38422;53.172;6.974;2023-06-14T04:34:12;3.25;;;1.50;;
52512;SDS011;38422;53.172;6.974;2023-06-14T04:36:41;2.85;;;1.70;;
52512;SDS011;38422;53.172;6.974;2023-06-14T04:39:14;3.47;;;1.77;;
52512;SDS011;38422;53.172;6.974;2023-06-14T04:41:44;4.22;;;1.80;;
52512;SDS011;38422;53.172;6.974;2023-06-14T04:44:10;4.30;;;1.60;;
52512;SDS011;38422;53.172;6.974;2023-06-14T04:46:38;5.10;;;1.80;;
52512;SDS011;38422;53.172;6.974;2023-06-14T04:49:13;3.55;;;1.90;;
52512;SDS011;38422;53.172;6.974;2023-06-14T04:51:43;4.00;;;1.63;;
52512;SDS011;38422;53.172;6.974;2023-06-14T04:54:16;5.65;;;1.70;;
52512;SDS011;38422;53.172;6.974;2023-06-14T04:56:43;3.08;;;1.83;;
52512;SDS011;38422;53.172;6.974;2023-06-14T04:59:10;5.88;;;1.80;;
52512;SDS011;38422;53.172;6.974;2023-06-14T05:01:40;3.97;;;2.10;;
52512;SDS011;38422;53.172;6.974;2023-06-14T05:04:06;4.00;;;1.90;;
52512;SDS011;38422;53.172;6.974;2023-06-14T05:06:31;4.28;;;1.85;;
52512;SDS011;38422;53.172;6.974;2023-06-14T05:08:58;3.22;;;1.65;;
52512;SDS011;38422;53.172;6.974;2023-06-14T05:11:23;4.50;;;2.07;;
52512;SDS011;38422;53.172;6.974;2023-06-14T05:13:49;2.45;;;1.50;;
52512;SDS011;38422;53.172;6.974;2023-06-14T05:16:16;5.53;;;1.70;;
52512;SDS011;38422;53.172;6.974;2023-06-14T05:18:44;3.28;;;1.83;;
52512;SDS011;38422;53.172;6.974;2023-06-14T05:21:12;3.55;;;1.63;;
52512;SDS011;38422;53.172;6.974;2023-06-14T05:23:38;4.13;;;1.85;;
52512;SDS011;38422;53.172;6.974;2023-06-14T05:26:04;4.60;;;1.60;;
52512;SDS011;38422;53.172;6.974;2023-06-14T05:28:31;4.32;;;2.15;;
52512;SDS011;38422;53.172;6.974;2023-06-14T05:30:57;4.32;;;1.73;;
52512;SDS011;38422;53.172;6.974;2023-06-14T05:33:23;3.47;;;1.83;;
52512;SDS011;38422;53.172;6.974;2023-06-14T05:35:49;4.22;;;1.90;;
52512;SDS011;38422;53.172;6.974;2023-06-14T05:38:15;5.25;;;1.80;;
52512;SDS011;38422;53.172;6.974;2023-06-14T05:40:43;3.53;;;1.85;;
52512;SDS011;38422;53.172;6.974;2023-06-14T05:43:09;6.07;;;1.70;;
52512;SDS011;38422;53.172;6.974;2023-06-14T05:45:35;3.70;;;1.90;;
52512;SDS011;38422;53.172;6.974;2023-06-14T05:48:01;4.00;;;1.73;;
52512;SDS011;38422;53.172;6.974;2023-06-14T05:50:27;2.95;;;1.90;;
52512;SDS011;38422;53.172;6.974;2023-06-14T05:52:53;3.47;;;1.65;;
52512;SDS011;38422;53.172;6.974;2023-06-14T05:55:19;4.25;;;1.63;;
52512;SDS011;38422;53.172;6.974;2023-06-14T05:57:44;2.83;;;1.77;;
52512;SDS011;38422;53.172;6.974;2023-06-14T06:00:11;4.95;;;1.85;;
52512;SDS011;38422;53.172;6.974;2023-06-14T06:02:40;4.32;;;1.70;;
52512;SDS011;38422;53.172;6.974;2023-06-14T06:05:08;3.45;;;1.75;;
52512;SDS011;38422;53.172;6.974;2023-06-14T06:07:35;4.47;;;1.67;;
52512;SDS011;38422;53.172;6.974;2023-06-14T06:10:01;4.13;;;1.88;;
52512;SDS011;38422;53.172;6.974;2023-06-14T06:12:27;3.75;;;1.70;;
52512;SDS011;38422;53.172;6.974;2023-06-14T06:14:53;3.75;;;1.73;;
52512;SDS011;38422;53.172;6.974;2023-06-14T06:17:18;3.28;;;1.92;;
52512;SDS011;38422;53.172;6.974;2023-06-14T06:19:44;3.85;;;1.70;;
52512;SDS011;38422;53.172;6.974;2023-06-14T06:22:10;4.07;;;1.80;;
52512;SDS011;38422;53.172;6.974;2023-06-14T06:24:36;2.45;;;1.48;;
52512;SDS011;38422;53.172;6.974;2023-06-14T06:27:02;4.13;;;1.63;;
52512;SDS011;38422;53.172;6.974;2023-06-14T06:29:28;5.32;;;1.77;;
52512;SDS011;38422;53.172;6.974;2023-06-14T06:31:54;4.60;;;1.77;;
52512;SDS011;38422;53.172;6.974;2023-06-14T06:34:21;5.75;;;1.83;;
52512;SDS011;38422;53.172;6.974;2023-06-14T06:36:47;5.50;;;1.58;;
52512;SDS011;38422;53.172;6.974;2023-06-14T06:39:12;3.60;;;1.70;;
52512;SDS011;38422;53.172;6.974;2023-06-14T06:41:40;3.78;;;1.60;;
52512;SDS011;38422;53.172;6.974;2023-06-14T06:44:06;4.97;;;1.70;;
52512;SDS011;38422;53.172;6.974;2023-06-14T06:46:32;3.83;;;1.57;;
52512;SDS011;38422;53.172;6.974;2023-06-14T06:48:59;3.20;;;1.52;;
52512;SDS011;38422;53.172;6.974;2023-06-14T06:51:25;4.93;;;1.58;;
52512;SDS011;38422;53.172;6.974;2023-06-14T06:53:54;3.60;;;1.50;;
52512;SDS011;38422;53.172;6.974;2023-06-14T06:56:20;3.75;;;1.73;;
52512;SDS011;38422;53.172;6.974;2023-06-14T06:58:51;3.08;;;1.52;;
52512;SDS011;38422;53.172;6.974;2023-06-14T07:01:17;2.78;;;1.70;;
52512;SDS011;38422;53.172;6.974;2023-06-14T07:03:44;3.67;;;1.40;;
52512;SDS011;38422;53.172;6.974;2023-06-14T07:06:11;2.58;;;1.20;;
52512;SDS011;38422;53.172;6.974;2023-06-14T07:08:37;4.97;;;1.63;;
52512;SDS011;38422;53.172;6.974;2023-06-14T07:11:06;3.35;;;1.52;;
52512;SDS011;38422;53.172;6.974;2023-06-14T07:13:32;5.50;;;1.90;;
52512;SDS011;38422;53.172;6.974;2023-06-14T07:15:58;4.38;;;1.70;;
52512;SDS011;38422;53.172;6.974;2023-06-14T07:18:25;4.10;;;1.60;;
52512;SDS011;38422;53.172;6.974;2023-06-14T07:20:52;2.83;;;1.43;;
52512;SDS011;38422;53.172;6.974;2023-06-14T07:23:22;2.33;;;1.23;;
52512;SDS011;38422;53.172;6.974;2023-06-14T07:25:48;3.05;;;1.35;;
52512;SDS011;38422;53.172;6.974;2023-06-14T07:28:15;3.30;;;1.50;;
52512;SDS011;38422;53.172;6.974;2023-06-14T07:30:42;7.13;;;1.70;;
52512;SDS011;38422;53.172;6.974;2023-06-14T07:33:07;6.93;;;1.55;;
52512;SDS011;38422;53.172;6.974;2023-06-14T07:35:33;4.22;;;1.50;;
52512;SDS011;38422;53.172;6.974;2023-06-14T07:37:59;5.07;;;1.40;;
52512;SDS011;38422;53.172;6.974;2023-06-14T07:40:25;4.00;;;1.42;;
52512;SDS011;38422;53.172;6.974;2023-06-14T07:42:51;3.30;;;1.40;;
52512;SDS011;38422;53.172;6.974;2023-06-14T07:45:19;1.55;;;1.40;;
52512;SDS011;38422;53.172;6.974;2023-06-14T07:47:44;3.47;;;1.60;;
52512;SDS011;38422;53.172;6.974;2023-06-14T07:50:10;2.75;;;1.30;;
52512;SDS011;38422;53.172;6.974;2023-06-14T07:52:36;3.67;;;1.42;;
52512;SDS011;38422;53.172;6.974;2023-06-14T07:55:02;2.25;;;1.20;;
52512;SDS011;38422;53.172;6.974;2023-06-14T07:57:28;2.95;;;1.23;;
52512;SDS011;38422;53.172;6.974;2023-06-14T07:59:54;5.47;;;1.40;;
52512;SDS011;38422;53.172;6.974;2023-06-14T08:02:19;5.20;;;1.70;;
52512;SDS011;38422;53.172;6.974;2023-06-14T08:04:45;2.75;;;1.35;;
52512;SDS011;38422;53.172;6.974;2023-06-14T08:07:13;3.83;;;1.40;;
52512;SDS011;38422;53.172;6.974;2023-06-14T08:09:39;4.50;;;1.35;;
52512;SDS011;38422;53.172;6.974;2023-06-14T08:12:06;3.20;;;1.20;;
52512;SDS011;38422;53.172;6.974;2023-06-14T08:14:34;3.78;;;1.60;;
52512;SDS011;38422;53.172;6.974;2023-06-14T08:17:00;3.72;;;1.48;;
52512;SDS011;38422;53.172;6.974;2023-06-14T08:19:26;1.60;;;1.20;;
52512;SDS011;38422;53.172;6.974;2023-06-14T08:21:52;6.47;;;1.70;;
52512;SDS011;38422;53.172;6.974;2023-06-14T08:24:21;2.60;;;1.10;;
52512;SDS011;38422;53.172;6.974;2023-06-14T08:26:49;3.00;;;1.30;;
52512;SDS011;38422;53.172;6.974;2023-06-14T08:29:15;4.90;;;1.30;;
52512;SDS011;38422;53.172;6.974;2023-06-14T08:31:41;3.65;;;1.30;;
52512;SDS011;38422;53.172;6.974;2023-06-14T08:34:07;4.93;;;1.67;;
52512;SDS011;38422;53.172;6.974;2023-06-14T08:36:32;2.80;;;1.30;;
52512;SDS011;38422;53.172;6.974;2023-06-14T08:38:58;3.75;;;1.25;;
52512;SDS011;38422;53.172;6.974;2023-06-14T08:41:24;4.63;;;1.40;;
52512;SDS011;38422;53.172;6.974;2023-06-14T08:43:50;2.22;;;1.30;;
52512;SDS011;38422;53.172;6.974;2023-06-14T08:46:17;2.13;;;1.20;;
52512;SDS011;38422;53.172;6.974;2023-06-14T08:48:50;3.88;;;1.10;;
52512;SDS011;38422;53.172;6.974;2023-06-14T08:51:20;4.90;;;1.48;;
52512;SDS011;38422;53.172;6.974;2023-06-14T08:53:52;3.72;;;1.35;;
52512;SDS011;38422;53.172;6.974;2023-06-14T08:56:25;3.42;;;1.30;;
52512;SDS011;38422;53.172;6.974;2023-06-14T08:58:55;3.22;;;1.30;;
52512;SDS011;38422;53.172;6.974;2023-06-14T09:01:29;2.90;;;1.40;;
52512;SDS011;38422;53.172;6.974;2023-06-14T09:04:01;3.70;;;1.20;;
52512;SDS011;38422;53.172;6.974;2023-06-14T09:06:30;2.53;;;1.30;;
52512;SDS011;38422;53.172;6.974;2023-06-14T09:08:56;2.97;;;1.23;;
52512;SDS011;38422;53.172;6.974;2023-06-14T09:11:23;3.10;;;1.40;;
52512;SDS011;38422;53.172;6.974;2023-06-14T09:13:49;3.00;;;1.35;;
52512;SDS011;38422;53.172;6.974;2023-06-14T09:16:15;3.72;;;1.33;;
52512;SDS011;38422;53.172;6.974;2023-06-14T09:18:42;3.20;;;1.42;;
52512;SDS011;38422;53.172;6.974;2023-06-14T09:21:10;3.00;;;1.13;;
52512;SDS011;38422;53.172;6.974;2023-06-14T09:23:41;5.18;;;1.20;;
52512;SDS011;38422;53.172;6.974;2023-06-14T09:26:12;4.03;;;1.20;;
52512;SDS011;38422;53.172;6.974;2023-06-14T09:28:42;8.50;;;1.50;;
52512;SDS011;38422;53.172;6.974;2023-06-14T09:31:13;27.60;;;4.07;;
52512;SDS011;38422;53.172;6.974;2023-06-14T09:33:46;4.70;;;1.42;;
52512;SDS011;38422;53.172;6.974;2023-06-14T09:36:17;2.50;;;1.20;;
52512;SDS011;38422;53.172;6.974;2023-06-14T09:38:55;3.75;;;1.20;;
52512;SDS011;38422;53.172;6.974;2023-06-14T09:44:05;4.90;;;1.30;;
52512;SDS011;38422;53.172;6.974;2023-06-14T09:46:32;2.88;;;1.38;;
52512;SDS011;38422;53.172;6.974;2023-06-14T09:48:59;2.83;;;1.20;;
52512;SDS011;38422;53.172;6.974;2023-06-14T09:51:26;3.22;;;1.20;;
52512;SDS011;38422;53.172;6.974;2023-06-14T09:53:53;3.78;;;1.02;;
52512;SDS011;38422;53.172;6.974;2023-06-14T09:59:09;1.75;;;0.98;;
52512;SDS011;38422;53.172;6.974;2023-06-14T10:01:41;1.85;;;1.00;;
52512;SDS011;38422;53.172;6.974;2023-06-14T10:04:07;3.97;;;1.48;;
52512;SDS011;38422;53.172;6.974;2023-06-14T10:06:41;3.72;;;1.20;;
52512;SDS011;38422;53.172;6.974;2023-06-14T10:09:10;3.13;;;0.98;;
52512;SDS011;38422;53.172;6.974;2023-06-14T10:14:10;2.03;;;1.20;;
52512;SDS011;38422;53.172;6.974;2023-06-14T10:16:57;2.97;;;1.10;;
52512;SDS011;38422;53.172;6.974;2023-06-14T10:19:32;2.65;;;1.13;;
52512;SDS011;38422;53.172;6.974;2023-06-14T10:22:17;1.70;;;0.95;;
52512;SDS011;38422;53.172;6.974;2023-06-14T10:24:50;2.25;;;0.90;;
52512;SDS011;38422;53.172;6.974;2023-06-14T10:27:16;2.63;;;1.02;;
52512;SDS011;38422;53.172;6.974;2023-06-14T10:32:18;2.53;;;0.90;;
52512;SDS011;38422;53.172;6.974;2023-06-14T10:34:46;1.80;;;1.08;;
52512;SDS011;38422;53.172;6.974;2023-06-14T10:37:22;3.25;;;0.98;;
52512;SDS011;38422;53.172;6.974;2023-06-14T10:39:49;2.63;;;1.27;;
52512;SDS011;38422;53.172;6.974;2023-06-14T10:42:16;2.38;;;0.80;;
52512;SDS011;38422;53.172;6.974;2023-06-14T10:44:42;3.10;;;0.90;;
52512;SDS011;38422;53.172;6.974;2023-06-14T10:49:49;3.30;;;0.90;;
52512;SDS011;38422;53.172;6.974;2023-06-14T10:52:28;1.88;;;0.80;;
52512;SDS011;38422;53.172;6.974;2023-06-14T10:57:46;1.58;;;0.80;;
52512;SDS011;38422;53.172;6.974;2023-06-14T11:00:17;1.42;;;0.85;;
52512;SDS011;38422;53.172;6.974;2023-06-14T11:05:54;1.45;;;0.60;;
52512;SDS011;38422;53.172;6.974;2023-06-14T11:08:39;1.92;;;1.00;;
52512;SDS011;38422;53.172;6.974;2023-06-14T11:11:15;3.00;;;0.90;;
52512;SDS011;38422;53.172;6.974;2023-06-14T11:13:44;1.88;;;0.82;;
52512;SDS011;38422;53.172;6.974;2023-06-14T11:16:11;1.48;;;0.82;;
52512;SDS011;38422;53.172;6.974;2023-06-14T11:18:41;2.05;;;0.90;;
52512;SDS011;38422;53.172;6.974;2023-06-14T11:21:07;1.58;;;0.80;;
52512;SDS011;38422;53.172;6.974;2023-06-14T11:23:36;3.70;;;0.90;;
52512;SDS011;38422;53.172;6.974;2023-06-14T11:26:02;3.03;;;0.70;;
52512;SDS011;38422;53.172;6.974;2023-06-14T11:28:38;1.50;;;0.85;;
52512;SDS011;38422;53.172;6.974;2023-06-14T11:31:05;2.47;;;0.80;;
52512;SDS011;38422;53.172;6.974;2023-06-14T11:35:57;4.90;;;0.90;;
52512;SDS011;38422;53.172;6.974;2023-06-14T11:38:34;1.85;;;0.77;;
52512;SDS011;38422;53.172;6.974;2023-06-14T11:41:01;2.78;;;0.82;;
52512;SDS011;38422;53.172;6.974;2023-06-14T11:43:27;3.47;;;0.80;;
52512;SDS011;38422;53.172;6.974;2023-06-14T11:45:54;2.78;;;0.90;;
52512;SDS011;38422;53.172;6.974;2023-06-14T11:48:19;0.90;;;0.70;;
52512;SDS011;38422;53.172;6.974;2023-06-14T11:50:49;1.65;;;0.70;;
52512;SDS011;38422;53.172;6.974;2023-06-14T11:53:15;2.03;;;0.95;;
52512;SDS011;38422;53.172;6.974;2023-06-14T11:58:10;2.25;;;0.68;;
52512;SDS011;38422;53.172;6.974;2023-06-14T12:00:37;3.08;;;1.00;;
52512;SDS011;38422;53.172;6.974;2023-06-14T12:03:03;2.85;;;0.90;;
52512;SDS011;38422;53.172;6.974;2023-06-14T12:05:29;2.25;;;0.80;;
52512;SDS011;38422;53.172;6.974;2023-06-14T12:07:58;2.43;;;0.70;;
52512;SDS011;38422;53.172;6.974;2023-06-14T12:10:25;2.67;;;0.80;;
52512;SDS011;38422;53.172;6.974;2023-06-14T12:12:56;3.35;;;0.90;;
52512;SDS011;38422;53.172;6.974;2023-06-14T12:15:23;3.38;;;0.93;;
52512;SDS011;38422;53.172;6.974;2023-06-14T12:17:49;2.35;;;0.80;;
52512;SDS011;38422;53.172;6.974;2023-06-14T12:20:15;2.55;;;0.80;;
52512;SDS011;38422;53.172;6.974;2023-06-14T12:22:55;3.25;;;0.80;;
52512;SDS011;38422;53.172;6.974;2023-06-14T12:25:28;2.60;;;1.00;;
52512;SDS011;38422;53.172;6.974;2023-06-14T12:27:56;4.68;;;0.93;;
52512;SDS011;38422;53.172;6.974;2023-06-14T12:30:23;2.28;;;0.82;;
52512;SDS011;38422;53.172;6.974;2023-06-14T12:32:49;2.38;;;0.90;;
52512;SDS011;38422;53.172;6.974;2023-06-14T12:35:16;1.27;;;0.88;;
52512;SDS011;38422;53.172;6.974;2023-06-14T12:37:45;3.42;;;1.10;;
52512;SDS011;38422;53.172;6.974;2023-06-14T12:40:11;2.03;;;0.90;;
52512;SDS011;38422;53.172;6.974;2023-06-14T12:42:37;2.15;;;0.88;;
52512;SDS011;38422;53.172;6.974;2023-06-14T12:45:03;1.52;;;0.80;;
52512;SDS011;38422;53.172;6.974;2023-06-14T12:47:29;2.90;;;0.80;;
52512;SDS011;38422;53.172;6.974;2023-06-14T12:49:55;3.22;;;0.88;;
52512;SDS011;38422;53.172;6.974;2023-06-14T12:52:24;2.50;;;0.82;;
52512;SDS011;38422;53.172;6.974;2023-06-14T12:54:50;2.35;;;0.98;;
52512;SDS011;38422;53.172;6.974;2023-06-14T12:57:15;3.15;;;0.80;;
52512;SDS011;38422;53.172;6.974;2023-06-14T12:59:41;3.70;;;1.20;;
52512;SDS011;38422;53.172;6.974;2023-06-14T13:02:13;5.47;;;1.00;;
52512;SDS011;38422;53.172;6.974;2023-06-14T13:04:43;3.05;;;1.10;;
52512;SDS011;38422;53.172;6.974;2023-06-14T13:09:36;3.72;;;0.90;;
52512;SDS011;38422;53.172;6.974;2023-06-14T13:14:28;1.77;;;0.80;;
52512;SDS011;38422;53.172;6.974;2023-06-14T13:16:54;1.25;;;0.80;;
52512;SDS011;38422;53.172;6.974;2023-06-14T13:19:20;1.67;;;0.80;;
52512;SDS011;38422;53.172;6.974;2023-06-14T13:21:46;2.63;;;0.98;;
52512;SDS011;38422;53.172;6.974;2023-06-14T13:24:13;2.83;;;0.82;;
52512;SDS011;38422;53.172;6.974;2023-06-14T13:26:39;3.28;;;1.00;;
52512;SDS011;38422;53.172;6.974;2023-06-14T13:29:04;2.47;;;0.93;;
52512;SDS011;38422;53.172;6.974;2023-06-14T13:31:30;1.80;;;0.80;;
52512;SDS011;38422;53.172;6.974;2023-06-14T13:33:56;2.53;;;1.00;;
52512;SDS011;38422;53.172;6.974;2023-06-14T13:36:22;1.40;;;0.90;;
52512;SDS011;38422;53.172;6.974;2023-06-14T13:38:47;3.23;;;0.60;;
52512;SDS011;38422;53.172;6.974;2023-06-14T13:41:13;3.13;;;0.80;;
52512;SDS011;38422;53.172;6.974;2023-06-14T13:43:39;2.30;;;0.90;;
52512;SDS011;38422;53.172;6.974;2023-06-14T13:48:31;2.17;;;0.88;;
52512;SDS011;38422;53.172;6.974;2023-06-14T13:50:57;2.45;;;1.10;;
52512;SDS011;38422;53.172;6.974;2023-06-14T13:53:25;1.98;;;1.00;;
52512;SDS011;38422;53.172;6.974;2023-06-14T13:55:50;3.23;;;0.97;;
52512;SDS011;38422;53.172;6.974;2023-06-14T13:58:17;3.13;;;1.00;;
52512;SDS011;38422;53.172;6.974;2023-06-14T14:00:44;2.05;;;1.00;;
52512;SDS011;38422;53.172;6.974;2023-06-14T14:03:09;3.05;;;1.00;;
52512;SDS011;38422;53.172;6.974;2023-06-14T14:05:36;1.30;;;1.00;;
52512;SDS011;38422;53.172;6.974;2023-06-14T14:08:02;4.45;;;1.10;;
52512;SDS011;38422;53.172;6.974;2023-06-14T14:10:29;1.88;;;1.10;;
52512;SDS011;38422;53.172;6.974;2023-06-14T14:12:54;1.90;;;0.90;;
52512;SDS011;38422;53.172;6.974;2023-06-14T14:15:20;1.83;;;0.93;;
52512;SDS011;38422;53.172;6.974;2023-06-14T14:17:46;2.50;;;1.00;;
52512;SDS011;38422;53.172;6.974;2023-06-14T14:20:12;1.73;;;0.90;;
52512;SDS011;38422;53.172;6.974;2023-06-14T14:22:41;2.53;;;0.80;;
52512;SDS011;38422;53.172;6.974;2023-06-14T14:25:08;5.13;;;1.13;;
52512;SDS011;38422;53.172;6.974;2023-06-14T14:27:34;3.10;;;1.10;;
52512;SDS011;38422;53.172;6.974;2023-06-14T14:30:00;4.15;;;1.20;;
52512;SDS011;38422;53.172;6.974;2023-06-14T14:32:26;2.45;;;0.90;;
52512;SDS011;38422;53.172;6.974;2023-06-14T14:34:52;3.30;;;0.98;;
52512;SDS011;38422;53.172;6.974;2023-06-14T14:37:20;2.30;;;1.13;;
52512;SDS011;38422;53.172;6.974;2023-06-14T14:39:46;2.83;;;1.20;;
52512;SDS011;38422;53.172;6.974;2023-06-14T14:42:12;1.73;;;1.00;;
52512;SDS011;38422;53.172;6.974;2023-06-14T14:44:38;3.75;;;1.10;;
52512;SDS011;38422;53.172;6.974;2023-06-14T14:47:04;1.65;;;1.05;;
52512;SDS011;38422;53.172;6.974;2023-06-14T14:51:57;1.27;;;1.10;;
52512;SDS011;38422;53.172;6.974;2023-06-14T14:54:23;1.17;;;0.90;;
52512;SDS011;38422;53.172;6.974;2023-06-14T14:56:50;1.05;;;0.95;;
52512;SDS011;38422;53.172;6.974;2023-06-14T14:59:16;1.40;;;1.00;;
52512;SDS011;38422;53.172;6.974;2023-06-14T15:01:42;3.05;;;1.10;;
52512;SDS011;38422;53.172;6.974;2023-06-14T15:04:08;2.42;;;0.90;;
52512;SDS011;38422;53.172;6.974;2023-06-14T15:06:34;3.47;;;1.10;;
52512;SDS011;38422;53.172;6.974;2023-06-14T15:09:01;3.97;;;0.90;;
52512;SDS011;38422;53.172;6.974;2023-06-14T15:11:27;1.38;;;1.00;;
52512;SDS011;38422;53.172;6.974;2023-06-14T15:13:52;1.65;;;1.08;;
52512;SDS011;38422;53.172;6.974;2023-06-14T15:16:19;1.42;;;0.90;;
52512;SDS011;38422;53.172;6.974;2023-06-14T15:18:45;7.90;;;1.23;;
52512;SDS011;38422;53.172;6.974;2023-06-14T15:21:11;4.10;;;1.20;;
52512;SDS011;38422;53.172;6.974;2023-06-14T15:23:38;3.17;;;1.10;;
52512;SDS011;38422;53.172;6.974;2023-06-14T15:26:04;1.65;;;1.20;;
52512;SDS011;38422;53.172;6.974;2023-06-14T15:28:30;1.35;;;1.10;;
52512;SDS011;38422;53.172;6.974;2023-06-14T15:30:58;3.05;;;1.20;;
52512;SDS011;38422;53.172;6.974;2023-06-14T15:33:25;2.72;;;1.23;;
52512;SDS011;38422;53.172;6.974;2023-06-14T15:35:51;4.25;;;1.10;;